Time;durP1;ratioP1;P1;durP2;ratioP2;P2;SDS_P1;SDS_P2;PMS_P1;PMS_P2;Temp;Humidity;BMP_temperature;BMP_pressure;BME280_temperature;BME280_humidity;BME280_pressure;Samples;Min_cycle;Max_cycle;Signal;HPM_P1;HPM_P2
2021/06/03 00:02:08;;;;;;;5.47;2.67;;;;;;;12.31;100.00;98575.38;5133047;27;20198;-84
2021/06/03 00:04:36;;;;;;;2.83;2.63;;;;;;;12.29;100.00;98579.91;5133092;27;20564;-85
2021/06/03 00:07:04;;;;;;;2.97;2.47;;;;;;;12.28;100.00;98580.88;5133291;27;20211;-85
2021/06/03 00:09:31;;;;;;;2.40;2.20;;;;;;;12.30;100.00;98592.16;5132879;27;20206;-84
2021/06/03 00:11:58;;;;;;;2.90;2.70;;;;;;;12.39;100.00;98612.56;5132845;27;20209;-84
2021/06/03 00:14:25;;;;;;;2.60;2.40;;;;;;;12.24;100.00;98618.97;5132617;27;20579;-84
2021/06/03 00:16:52;;;;;;;4.53;2.70;;;;;;;12.25;100.00;98628.56;5133267;27;20225;-84
2021/06/03 00:19:19;;;;;;;3.13;2.93;;;;;;;12.13;100.00;98615.31;5132388;27;20660;-84
2021/06/03 00:21:48;;;;;;;2.83;2.63;;;;;;;12.19;100.00;98590.28;5132805;27;20197;-84
2021/06/03 00:24:15;;;;;;;4.13;3.07;;;;;;;12.32;100.00;98569.16;5132892;27;20753;-85
2021/06/03 00:26:42;;;;;;;3.00;2.80;;;;;;;12.39;100.00;98541.38;5132795;28;20592;-85
2021/06/03 00:29:11;;;;;;;3.20;2.83;;;;;;;12.40;100.00;98529.88;5132775;27;20588;-85
2021/06/03 00:31:38;;;;;;;3.00;2.67;;;;;;;12.42;100.00;98506.03;5132580;27;20205;-85
2021/06/03 00:34:05;;;;;;;2.90;2.70;;;;;;;12.21;100.00;98487.38;5132482;27;20203;-84
2021/06/03 00:36:32;;;;;;;3.07;2.87;;;;;;;12.23;100.00;98501.31;5132645;27;20198;-85
2021/06/03 00:39:00;;;;;;;2.70;2.50;;;;;;;12.23;100.00;98509.22;5132528;27;20255;-85
2021/06/03 00:41:27;;;;;;;3.17;2.87;;;;;;;12.26;100.00;98520.38;5132709;27;20285;-85
2021/06/03 00:43:54;;;;;;;2.73;2.60;;;;;;;12.30;100.00;98540.28;5132593;27;20247;-85
2021/06/03 00:46:21;;;;;;;2.67;2.47;;;;;;;12.38;100.00;98566.06;5132550;28;20653;-85
2021/06/03 00:48:47;;;;;;;2.70;2.40;;;;;;;12.48;100.00;98588.16;5132267;27;20283;-85
2021/06/03 00:51:14;;;;;;;3.50;2.63;;;;;;;12.51;100.00;98603.78;5132694;27;20190;-84
2021/06/03 00:53:43;;;;;;;3.13;2.90;;;;;;;12.47;100.00;98599.69;5132378;27;20191;-85
2021/06/03 00:56:12;;;;;;;3.37;3.03;;;;;;;12.26;100.00;98590.69;5132816;27;20262;-85
2021/06/03 00:58:38;;;;;;;3.13;2.83;;;;;;;12.42;100.00;98603.59;5132302;27;20722;-85
2021/06/03 01:01:06;;;;;;;4.23;2.50;;;;;;;12.51;100.00;98601.13;5132637;27;20281;-85
2021/06/03 01:03:33;;;;;;;3.10;2.90;;;;;;;12.38;100.00;98610.91;5132355;27;20602;-85
2021/06/03 01:06:02;;;;;;;3.13;2.77;;;;;;;12.30;100.00;98594.81;5132575;27;20199;-85
2021/06/03 01:08:35;;;;;;;3.33;2.87;;;;;;;12.29;100.00;98585.19;5132280;27;20215;-84
2021/06/03 01:11:07;;;;;;;5.33;3.00;;;;;;;12.19;100.00;98577.09;5132266;27;20198;-85
2021/06/03 01:13:44;;;;;;;7.13;3.20;;;;;;;12.36;100.00;98563.56;5132401;27;20290;-85
2021/06/03 01:16:12;;;;;;;3.70;2.83;;;;;;;12.46;100.00;98545.22;5132478;27;20602;-85
2021/06/03 01:18:41;;;;;;;2.70;2.50;;;;;;;12.26;100.00;98530.91;5132434;27;20667;-85
2021/06/03 01:21:12;;;;;;;2.93;2.60;;;;;;;12.20;100.00;98506.78;5135897;27;20283;-85
2021/06/03 01:23:44;;;;;;;3.13;2.83;;;;;;;12.18;100.00;98492.88;5136241;27;20191;-85
2021/06/03 01:26:14;;;;;;;4.03;2.83;;;;;;;12.29;100.00;98483.19;5136036;27;20175;-85
2021/06/03 01:28:41;;;;;;;2.83;2.63;;;;;;;12.27;100.00;98458.75;5135883;27;20227;-85
2021/06/03 01:31:09;;;;;;;3.23;2.97;;;;;;;12.35;100.00;98439.72;5133002;27;20206;-87
2021/06/03 01:33:41;;;;;;;3.30;3.00;;;;;;;12.24;100.00;98426.50;5136096;27;20198;-88
2021/06/03 01:36:11;;;;;;;3.53;3.23;;;;;;;12.38;100.00;98423.66;5136573;27;20179;-88
2021/06/03 01:38:40;;;;;;;2.87;2.67;;;;;;;12.25;100.00;98412.38;5136250;27;20178;-87
2021/06/03 01:41:11;;;;;;;2.83;2.63;;;;;;;12.21;100.00;98401.22;5136164;27;20234;-87
2021/06/03 01:43:42;;;;;;;2.80;2.50;;;;;;;12.19;100.00;98394.38;5136214;27;20202;-87
2021/06/03 01:46:10;;;;;;;5.00;3.30;;;;;;;12.19;100.00;98389.94;5135980;27;20194;-87
2021/06/03 01:48:37;;;;;;;3.60;3.33;;;;;;;12.08;100.00;98379.38;5135775;27;20257;-87
2021/06/03 01:51:08;;;;;;;4.43;3.17;;;;;;;12.19;100.00;98362.72;5136101;27;20190;-88
2021/06/03 01:53:35;;;;;;;3.20;3.00;;;;;;;12.18;100.00;98343.44;5136138;27;20175;-87
2021/06/03 01:56:04;;;;;;;3.27;2.97;;;;;;;12.26;100.00;98327.03;5136287;27;20578;-87
2021/06/03 01:58:31;;;;;;;3.73;3.43;;;;;;;12.21;100.00;98318.66;5135490;27;20190;-87
2021/06/03 02:01:00;;;;;;;7.27;3.13;;;;;;;12.10;100.00;98315.03;5135595;27;20313;-87
2021/06/03 02:03:28;;;;;;;5.03;3.27;;;;;;;12.16;100.00;98304.97;5135035;27;20732;-86
2021/06/03 02:05:55;;;;;;;4.50;3.30;;;;;;;12.07;100.00;98288.91;5135265;27;20240;-87
2021/06/03 02:08:22;;;;;;;4.33;3.00;;;;;;;12.20;100.00;98285.34;5135157;27;20214;-87
2021/06/03 02:10:51;;;;;;;3.97;3.67;;;;;;;12.22;100.00;98276.34;5135179;27;20234;-87
2021/06/03 02:13:20;;;;;;;3.33;3.03;;;;;;;12.09;100.00;98260.66;5134886;27;20292;-86
2021/06/03 02:15:55;;;;;;;2.93;2.73;;;;;;;11.90;100.00;98255.13;5134935;27;20190;-86
2021/06/03 02:18:28;;;;;;;3.03;2.83;;;;;;;11.89;100.00;98266.63;5135017;27;20181;-86
2021/06/03 02:20:56;;;;;;;3.23;2.90;;;;;;;11.79;100.00;98273.53;5135599;27;20204;-85
2021/06/03 02:23:25;;;;;;;3.20;2.90;;;;;;;11.77;100.00;98289.44;5135029;27;20195;-86
2021/06/03 02:25:54;;;;;;;2.70;2.50;;;;;;;11.83;100.00;98307.41;5134944;27;20670;-87
2021/06/03 02:28:21;;;;;;;4.57;2.63;;;;;;;11.66;100.00;98300.78;5135398;27;20666;-89
2021/06/03 02:30:48;;;;;;;3.47;3.17;;;;;;;11.67;100.00;98325.31;5135199;27;20198;-88
2021/06/03 02:33:15;;;;;;;4.70;3.07;;;;;;;11.65;100.00;98329.88;5135145;27;20199;-87
2021/06/03 02:35:45;;;;;;;3.40;3.10;;;;;;;11.82;100.00;98349.69;5135332;27;20247;-87
2021/06/03 02:38:12;;;;;;;3.30;3.10;;;;;;;11.60;100.00;98351.31;5135172;27;20282;-87
2021/06/03 02:40:41;;;;;;;3.07;2.80;;;;;;;11.72;100.00;98367.97;5134915;27;20365;-86
2021/06/03 02:43:08;;;;;;;3.20;2.90;;;;;;;11.65;100.00;98372.88;5134749;27;20645;-82
2021/06/03 02:45:35;;;;;;;3.30;3.00;;;;;;;11.52;100.00;98384.41;5134008;27;20233;-82
2021/06/03 02:48:03;;;;;;;3.03;2.83;;;;;;;11.42;100.00;98395.63;5133585;27;20226;-82
2021/06/03 02:50:30;;;;;;;2.87;2.67;;;;;;;11.59;100.00;98422.53;5134037;27;20198;-83
2021/06/03 02:52:58;;;;;;;2.93;2.73;;;;;;;11.61;100.00;98433.78;5133883;27;20194;-83
2021/06/03 02:55:26;;;;;;;3.83;3.00;;;;;;;11.55;100.00;98440.34;5133740;27;20276;-83
2021/06/03 02:57:53;;;;;;;3.43;3.20;;;;;;;11.50;100.00;98437.22;5133824;27;20194;-83
2021/06/03 03:00:22;;;;;;;3.37;3.07;;;;;;;11.61;100.00;98444.34;5133802;27;20260;-83
2021/06/03 03:02:49;;;;;;;3.13;2.90;;;;;;;11.59;100.00;98438.31;5133954;27;20241;-83
2021/06/03 03:05:16;;;;;;;2.93;2.73;;;;;;;11.50;100.00;98437.22;5133820;27;20191;-83
2021/06/03 03:07:43;;;;;;;4.23;2.63;;;;;;;11.45;100.00;98436.69;5133804;27;20289;-83
2021/06/03 03:10:15;;;;;;;3.60;3.40;;;;;;;11.42;100.00;98432.47;5133492;27;20292;-83
2021/06/03 03:12:42;;;;;;;3.20;3.00;;;;;;;11.37;100.00;98439.03;5133574;27;20655;-82
2021/06/03 03:15:11;;;;;;;2.70;2.50;;;;;;;11.42;100.00;98431.66;5133501;27;20194;-82
2021/06/03 03:17:38;;;;;;;2.97;2.77;;;;;;;11.35;100.00;98430.41;5133334;27;20292;-83
2021/06/03 03:20:07;;;;;;;4.17;2.80;;;;;;;11.32;100.00;98430.63;5134209;27;20674;-81
2021/06/03 03:22:33;;;;;;;2.73;2.53;;;;;;;11.36;100.00;98427.69;5133894;27;20690;-82
2021/06/03 03:25:00;;;;;;;5.23;2.97;;;;;;;11.53;100.00;98439.59;5133349;27;20605;-82
2021/06/03 03:27:28;;;;;;;3.97;3.03;;;;;;;11.43;100.00;98438.63;5133095;27;20201;-82
2021/06/03 03:29:55;;;;;;;3.93;3.37;;;;;;;11.29;100.00;98438.72;5133448;27;20194;-82
2021/06/03 03:32:22;;;;;;;3.50;3.20;;;;;;;11.15;100.00;98437.97;5133399;27;20199;-82
2021/06/03 03:34:49;;;;;;;3.13;2.87;;;;;;;11.28;100.00;98458.13;5133249;27;20230;-83
2021/06/03 03:37:16;;;;;;;3.00;2.80;;;;;;;11.11;100.00;98435.63;5132955;27;20194;-82
2021/06/03 03:39:43;;;;;;;3.33;3.03;;;;;;;11.24;100.00;98441.72;5133187;27;20247;-83
2021/06/03 03:42:10;;;;;;;3.33;2.47;;;;;;;11.10;100.00;98433.97;5132732;27;20690;-83
2021/06/03 03:44:38;;;;;;;4.73;3.07;;;;;;;11.04;100.00;98427.31;5133110;27;20194;-83
2021/06/03 03:47:06;;;;;;;3.07;2.87;;;;;;;11.00;100.00;98423.22;5133270;27;20229;-83
2021/06/03 03:49:35;;;;;;;3.10;2.87;;;;;;;11.09;100.00;98427.84;5133240;27;20230;-83
2021/06/03 03:52:03;;;;;;;2.83;2.63;;;;;;;11.11;100.00;98420.69;5130155;27;20205;-85
2021/06/03 03:54:30;;;;;;;7.67;3.20;;;;;;;11.29;100.00;98429.06;5132644;27;20269;-84
2021/06/03 03:56:57;;;;;;;3.63;3.30;;;;;;;11.25;100.00;98434.66;5132673;27;20247;-83
2021/06/03 03:59:24;;;;;;;3.90;3.03;;;;;;;11.28;100.00;98439.69;5132926;27;20201;-84
2021/06/03 04:01:54;;;;;;;4.23;3.50;;;;;;;11.40;100.00;98438.84;5132864;27;20190;-84
2021/06/03 04:04:21;;;;;;;3.43;3.13;;;;;;;11.60;100.00;98458.44;5133107;27;20237;-90
2021/06/03 04:06:48;;;;;;;3.57;3.27;;;;;;;11.51;100.00;98459.94;5133019;27;20186;-84
2021/06/03 04:09:15;;;;;;;3.30;3.10;;;;;;;11.48;100.00;98464.59;5132536;27;20622;-83
2021/06/03 04:11:42;;;;;;;4.30;2.97;;;;;;;11.57;100.00;98483.22;5132741;27;20206;-84
2021/06/03 04:14:09;;;;;;;3.40;3.10;;;;;;;11.53;100.00;98492.28;5132813;27;20287;-83
2021/06/03 04:16:36;;;;;;;4.17;3.80;;;;;;;11.61;100.00;98494.38;5132822;27;20187;-83
2021/06/03 04:19:04;;;;;;;3.80;3.50;;;;;;;11.62;100.00;98510.06;5132484;27;20195;-83
2021/06/03 04:21:31;;;;;;;7.00;2.93;;;;;;;11.65;100.00;98527.44;5133113;27;20216;-84
2021/06/03 04:23:59;;;;;;;3.03;2.83;;;;;;;11.69;100.00;98560.50;5132668;27;20201;-84
2021/06/03 04:26:26;;;;;;;9.23;6.00;;;;;;;11.79;100.00;98571.25;5133050;27;20265;-84
2021/06/03 04:28:53;;;;;;;4.70;4.23;;;;;;;11.77;100.00;98583.66;5132512;27;20225;-83
2021/06/03 04:31:20;;;;;;;5.20;4.50;;;;;;;11.83;100.00;98589.34;5132537;27;20677;-84
2021/06/03 04:33:47;;;;;;;5.50;5.00;;;;;;;11.95;100.00;98585.03;5132518;27;20195;-83
2021/06/03 04:36:16;;;;;;;26.67;12.93;;;;;;;11.90;100.00;98553.72;5132968;27;20556;-83
2021/06/03 04:38:42;;;;;;;284.53;132.60;;;;;;;11.99;100.00;98532.94;5132568;28;20194;-83
2021/06/03 04:41:09;;;;;;;84.57;57.77;;;;;;;12.05;100.00;98517.53;5132578;28;20197;-83
2021/06/03 04:43:37;;;;;;;8.43;7.10;;;;;;;12.09;100.00;98499.69;5132388;28;20197;-83
2021/06/03 04:46:04;;;;;;;33.97;23.33;;;;;;;12.04;100.00;98502.66;5132559;27;20195;-83
2021/06/03 04:48:31;;;;;;;7.80;7.10;;;;;;;12.17;100.00;98483.28;5132281;28;20225;-82
2021/06/03 04:50:58;;;;;;;9.60;6.37;;;;;;;12.22;100.00;98473.22;5132435;27;20199;-83
2021/06/03 04:53:26;;;;;;;11.33;8.17;;;;;;;12.19;100.00;98449.72;5132532;27;20757;-82
2021/06/03 04:55:53;;;;;;;10.87;8.37;;;;;;;12.24;100.00;98429.16;5136274;27;20233;-83
2021/06/03 04:58:20;;;;;;;14.60;8.13;;;;;;;12.16;100.00;98408.66;5136331;27;20270;-83
2021/06/03 05:00:47;;;;;;;11.13;4.40;;;;;;;12.23;100.00;98401.13;5136437;27;20212;-82
2021/06/03 05:03:14;;;;;;;4.63;4.23;;;;;;;12.29;100.00;98372.47;5136125;27;20195;-82
2021/06/03 05:05:42;;;;;;;4.53;3.60;;;;;;;12.26;100.00;98337.56;5136281;27;20230;-83
2021/06/03 05:08:09;;;;;;;7.97;3.90;;;;;;;12.27;100.00;98287.38;5135984;27;20218;-82
2021/06/03 05:10:37;;;;;;;4.43;3.77;;;;;;;12.30;100.00;98250.22;5135915;27;20203;-83
2021/06/03 05:13:05;;;;;;;8.60;4.37;;;;;;;12.29;100.00;98231.88;5135950;27;20288;-82
2021/06/03 05:15:33;;;;;;;5.87;4.30;;;;;;;12.41;100.00;98225.66;5136065;27;20202;-82
2021/06/03 05:18:00;;;;;;;5.33;4.40;;;;;;;12.60;100.00;98236.38;5135915;27;20209;-83
2021/06/03 05:20:28;;;;;;;3.77;3.40;;;;;;;12.79;100.00;98211.19;5135725;27;20222;-83
2021/06/03 05:22:57;;;;;;;5.13;3.43;;;;;;;12.86;100.00;98180.69;5135855;27;20219;-83
2021/06/03 05:25:25;;;;;;;3.20;3.00;;;;;;;12.93;100.00;98149.34;5136182;27;20198;-83
2021/06/03 05:27:54;;;;;;;3.47;3.17;;;;;;;13.00;100.00;98127.59;5136011;27;20237;-83
2021/06/03 05:30:22;;;;;;;6.03;3.30;;;;;;;13.20;100.00;98114.53;5135830;27;20199;-83
2021/06/03 05:32:49;;;;;;;4.43;3.13;;;;;;;13.53;100.00;98095.81;5135752;27;20687;-83
2021/06/03 05:35:18;;;;;;;4.87;4.27;;;;;;;13.89;100.00;98045.16;5135546;27;20194;-83
2021/06/03 05:37:45;;;;;;;3.87;2.87;;;;;;;13.99;100.00;97972.84;5135728;27;20202;-83
2021/06/03 05:40:15;;;;;;;2.90;2.70;;;;;;;14.08;100.00;97913.00;5135215;27;20667;-83
2021/06/03 05:42:42;;;;;;;3.87;3.57;;;;;;;14.21;100.00;97883.63;5135531;27;20251;-83
2021/06/03 05:45:12;;;;;;;3.60;3.30;;;;;;;14.55;100.00;97856.69;5135388;27;20667;-83
2021/06/03 05:47:40;;;;;;;3.17;2.87;;;;;;;14.64;100.00;97809.03;5135767;27;20195;-83
2021/06/03 05:50:11;;;;;;;3.67;3.40;;;;;;;14.90;100.00;97772.13;5135236;27;20577;-83
2021/06/03 05:52:39;;;;;;;4.13;3.73;;;;;;;15.03;100.00;97734.69;5135429;27;20179;-83
2021/06/03 05:55:08;;;;;;;4.70;3.90;;;;;;;15.14;100.00;97675.38;5134991;27;20283;-83
2021/06/03 05:57:35;;;;;;;8.30;6.83;;;;;;;14.98;100.00;97631.88;5135016;27;20207;-82
2021/06/03 06:00:02;;;;;;;7.20;4.67;;;;;;;15.21;100.00;97611.06;5135072;27;20290;-83
2021/06/03 06:02:44;;;;;;;3.87;3.03;;;;;;;15.40;100.00;97580.88;5135117;27;20198;-83
2021/06/03 06:07:56;;;;;;;3.43;3.10;;;;;;;15.30;100.00;97543.06;5135008;27;20182;-83
2021/06/03 06:10:23;;;;;;;4.27;2.90;;;;;;;15.09;100.00;97551.38;5134940;27;20195;-83
2021/06/03 06:12:50;;;;;;;3.73;2.87;;;;;;;15.09;100.00;97538.13;5134904;27;20190;-82
2021/06/03 06:15:17;;;;;;;5.50;2.70;;;;;;;15.70;100.00;97520.44;5134813;27;20628;-83
2021/06/03 06:17:46;;;;;;;6.97;3.07;;;;;;;16.09;100.00;97477.44;5134830;27;20194;-83
2021/06/03 06:20:13;;;;;;;3.90;3.50;;;;;;;16.26;100.00;97454.44;5134762;27;20610;-83
2021/06/03 06:22:41;;;;;;;3.43;3.13;;;;;;;16.52;100.00;97415.28;5134999;27;20198;-83
2021/06/03 06:25:09;;;;;;;2.70;2.47;;;;;;;16.67;100.00;97380.91;5134649;27;20201;-83
2021/06/03 06:27:36;;;;;;;3.13;2.50;;;;;;;16.79;100.00;97366.28;5134986;27;20194;-83
2021/06/03 06:30:06;;;;;;;3.70;2.80;;;;;;;16.88;100.00;97348.53;5134199;27;20219;-82
2021/06/03 06:32:33;;;;;;;6.73;3.03;;;;;;;17.11;100.00;97332.63;5134816;27;20691;-84
2021/06/03 06:35:01;;;;;;;3.03;2.73;;;;;;;17.06;100.00;97317.22;5134593;27;20236;-83
2021/06/03 06:37:28;;;;;;;4.43;2.30;;;;;;;17.20;100.00;97320.97;5134299;27;20194;-83
2021/06/03 06:39:55;;;;;;;3.80;2.70;;;;;;;17.06;100.00;97293.31;5134262;27;20233;-83
2021/06/03 06:42:23;;;;;;;2.13;1.93;;;;;;;17.42;100.00;97300.75;5134327;27;20193;-83
2021/06/03 06:44:50;;;;;;;3.07;2.77;;;;;;;17.15;100.00;97288.00;5134323;27;20193;-83
2021/06/03 06:47:17;;;;;;;5.80;2.67;;;;;;;16.62;100.00;97272.59;5134078;27;20666;-83
2021/06/03 06:49:44;;;;;;;5.60;2.30;;;;;;;16.60;100.00;97303.78;5134011;27;20222;-83
2021/06/03 06:52:12;;;;;;;4.67;2.70;;;;;;;16.61;100.00;97316.06;5134416;27;20281;-83
2021/06/03 06:54:40;;;;;;;2.63;2.43;;;;;;;16.71;100.00;97317.69;5133683;27;20246;-83
2021/06/03 06:57:07;;;;;;;3.00;2.40;;;;;;;17.01;100.00;97313.47;5134088;27;20205;-83
2021/06/03 06:59:34;;;;;;;4.17;2.50;;;;;;;17.09;100.00;97324.84;5133793;27;20613;-83
2021/06/03 07:02:01;;;;;;;6.13;3.70;;;;;;;16.96;100.00;97342.34;5133922;27;20197;-83
2021/06/03 07:04:28;;;;;;;4.60;2.30;;;;;;;16.75;100.00;97337.63;5133582;27;20193;-83
2021/06/03 07:06:55;;;;;;;5.03;2.73;;;;;;;16.70;100.00;97338.09;5133877;27;20194;-84
2021/06/03 07:09:23;;;;;;;3.40;2.50;;;;;;;16.57;100.00;97337.81;5133876;27;20638;-84
2021/06/03 07:11:50;;;;;;;3.23;2.53;;;;;;;16.79;100.00;97371.59;5133794;27;20254;-83
2021/06/03 07:14:17;;;;;;;4.03;2.80;;;;;;;17.18;100.00;97357.53;5133591;27;20254;-83
2021/06/03 07:16:44;;;;;;;2.67;2.27;;;;;;;17.30;100.00;97377.38;5132698;27;20204;-83
2021/06/03 07:19:11;;;;;;;2.77;2.57;;;;;;;17.00;100.00;97375.53;5133763;27;20242;-83
2021/06/03 07:21:38;;;;;;;3.37;3.07;;;;;;;16.69;100.00;97389.53;5133934;27;20197;-83
2021/06/03 07:24:06;;;;;;;2.53;2.33;;;;;;;16.69;100.00;97405.44;5133403;27;20202;-83
2021/06/03 07:26:35;;;;;;;2.40;2.20;;;;;;;16.70;100.00;97423.06;5133419;27;20206;-83
2021/06/03 07:29:05;;;;;;;2.30;2.20;;;;;;;16.79;100.00;97431.84;5133607;27;20218;-83
2021/06/03 07:31:34;;;;;;;2.40;2.00;;;;;;;16.72;100.00;97430.84;5133669;27;20206;-83
2021/06/03 07:34:01;;;;;;;2.57;2.37;;;;;;;16.63;100.00;97422.06;5133323;27;20701;-83
2021/06/03 07:36:28;;;;;;;2.80;2.60;;;;;;;16.77;100.00;97440.00;5133429;27;20251;-83
2021/06/03 07:38:55;;;;;;;3.20;2.90;;;;;;;16.79;100.00;97456.56;5133159;27;20186;-84
2021/06/03 07:41:22;;;;;;;2.97;2.57;;;;;;;16.81;100.00;97456.41;5133121;27;20193;-83
2021/06/03 07:43:50;;;;;;;3.57;2.80;;;;;;;16.82;100.00;97442.13;5133029;27;20246;-84
2021/06/03 07:46:17;;;;;;;2.70;2.50;;;;;;;16.76;100.00;97451.59;5133547;27;20570;-84
2021/06/03 07:48:44;;;;;;;3.03;2.83;;;;;;;16.83;100.00;97459.72;5133172;27;20218;-83
2021/06/03 07:51:12;;;;;;;3.47;2.67;;;;;;;16.68;100.00;97451.59;5133171;27;20201;-83
2021/06/03 07:53:39;;;;;;;2.90;2.60;;;;;;;16.66;100.00;97453.59;5132480;27;20198;-83
2021/06/03 07:56:06;;;;;;;4.10;3.17;;;;;;;16.60;100.00;97480.78;5133167;27;20186;-84
2021/06/03 07:58:33;;;;;;;3.20;2.90;;;;;;;16.55;100.00;97507.00;5133357;27;20187;-84
2021/06/03 08:01:04;;;;;;;3.57;3.27;;;;;;;16.44;100.00;97529.38;5133021;27;20198;-84
2021/06/03 08:03:31;;;;;;;6.37;3.77;;;;;;;16.40;100.00;97544.81;5132875;27;20237;-84
2021/06/03 08:05:58;;;;;;;6.67;3.20;;;;;;;16.34;100.00;97564.03;5132742;27;20233;-83
2021/06/03 08:08:25;;;;;;;3.60;3.10;;;;;;;16.30;100.00;97562.69;5132970;27;20218;-83
2021/06/03 08:10:52;;;;;;;5.63;4.13;;;;;;;16.21;100.00;97574.28;5132905;27;20255;-84
2021/06/03 08:13:19;;;;;;;4.00;3.10;;;;;;;16.07;100.00;97586.34;5133046;27;20630;-83
2021/06/03 08:15:46;;;;;;;6.30;3.83;;;;;;;16.04;100.00;97596.47;5132966;27;20596;-83
2021/06/03 08:18:14;;;;;;;5.03;2.93;;;;;;;15.96;100.00;97605.19;5132938;27;20198;-83
2021/06/03 08:20:44;;;;;;;3.43;3.13;;;;;;;15.99;100.00;97617.31;5132845;27;20258;-84
2021/06/03 08:23:14;;;;;;;3.73;3.43;;;;;;;15.95;100.00;97624.75;5132923;27;20221;-83
2021/06/03 08:25:42;;;;;;;4.27;3.83;;;;;;;15.99;100.00;97634.03;5132552;27;20186;-83
2021/06/03 08:28:09;;;;;;;6.33;2.80;;;;;;;16.06;100.00;97637.72;5133944;27;20665;-83
2021/06/03 08:30:37;;;;;;;4.63;3.07;;;;;;;16.02;100.00;97636.38;5137473;27;20198;-83
2021/06/03 08:33:05;;;;;;;6.30;2.70;;;;;;;16.10;100.00;97620.47;5137050;27;20197;-83
2021/06/03 08:35:34;;;;;;;3.60;3.30;;;;;;;16.10;100.00;97623.13;5137066;27;20202;-83
2021/06/03 08:38:04;;;;;;;8.27;3.27;;;;;;;16.12;100.00;97612.38;5136625;27;20253;-83
2021/06/03 08:40:33;;;;;;;4.23;3.40;;;;;;;16.43;100.00;97614.47;5136760;27;20244;-84
2021/06/03 08:43:01;;;;;;;5.23;3.70;;;;;;;16.58;100.00;97621.63;5136917;27;20193;-83
2021/06/03 08:45:32;;;;;;;3.50;3.23;;;;;;;16.74;100.00;97612.88;5136676;27;20288;-84
2021/06/03 08:47:59;;;;;;;4.00;3.60;;;;;;;16.74;100.00;97604.06;5136571;27;20206;-83
2021/06/03 08:50:28;;;;;;;4.97;3.73;;;;;;;16.51;100.00;97598.56;5136434;27;20221;-83
2021/06/03 08:52:57;;;;;;;8.03;4.13;;;;;;;16.35;100.00;97594.88;5136483;27;20201;-84
2021/06/03 08:58:13;;;;;;;6.13;4.57;;;;;;;16.12;100.00;97630.94;5136353;27;20196;-83
2021/06/03 09:00:42;;;;;;;5.90;4.60;;;;;;;16.12;100.00;97638.91;5136425;27;20196;-83
2021/06/03 09:03:09;;;;;;;4.63;4.23;;;;;;;16.00;100.00;97645.47;5136002;27;20185;-83
2021/06/03 09:05:36;;;;;;;4.77;4.37;;;;;;;15.90;100.00;97645.63;5136285;27;20670;-84
2021/06/03 09:08:20;;;;;;;4.80;4.30;;;;;;;15.97;100.00;97645.78;5136128;27;20228;-83
2021/06/03 09:10:49;;;;;;;11.07;4.13;;;;;;;15.96;100.00;97642.31;5136206;27;20221;-84
2021/06/03 09:13:18;;;;;;;4.53;4.13;;;;;;;15.98;100.00;97643.00;5135712;27;20209;-83
2021/06/03 09:15:46;;;;;;;4.07;3.77;;;;;;;16.01;100.00;97644.50;5136109;27;20203;-83
2021/06/03 09:18:14;;;;;;;4.60;4.20;;;;;;;16.13;100.00;97659.13;5136154;27;20196;-83
2021/06/03 09:20:44;;;;;;;4.73;4.07;;;;;;;16.03;100.00;97651.28;5135787;27;20217;-82
2021/06/03 09:23:29;;;;;;;3.80;3.50;;;;;;;16.14;100.00;97645.72;5135772;27;20292;-83
2021/06/03 09:25:57;;;;;;;4.23;3.90;;;;;;;16.01;100.00;97636.56;5136210;27;20174;-83
2021/06/03 09:28:27;;;;;;;3.87;3.57;;;;;;;15.99;100.00;97639.34;5135573;27;20203;-83
2021/06/03 09:30:56;;;;;;;3.77;3.47;;;;;;;16.23;100.00;97638.63;5136003;27;20229;-83
2021/06/03 09:33:40;;;;;;;3.97;3.47;;;;;;;16.36;100.00;97633.69;5135378;27;20291;-83
2021/06/03 09:36:09;;;;;;;3.93;3.10;;;;;;;16.32;100.00;97621.75;5135778;27;20193;-83
2021/06/03 09:38:55;;;;;;;5.43;3.77;;;;;;;16.56;100.00;97606.88;5135765;27;20189;-83
2021/06/03 09:41:23;;;;;;;4.33;3.13;;;;;;;16.65;100.00;97589.94;5135098;27;20181;-84
2021/06/03 09:44:02;;;;;;;4.37;3.00;;;;;;;17.00;100.00;97572.06;5135336;27;20580;-83
2021/06/03 09:46:35;;;;;;;5.70;3.20;;;;;;;16.99;100.00;97552.63;5135582;27;20224;-84
2021/06/03 09:49:02;;;;;;;4.40;3.60;;;;;;;17.12;100.00;97533.53;5135215;27;20616;-84
2021/06/03 09:51:31;;;;;;;3.40;3.20;;;;;;;17.30;100.00;97523.53;5135580;27;20263;-84
2021/06/03 09:54:02;;;;;;;3.67;2.87;;;;;;;17.33;100.00;97501.94;5134934;27;20232;-83
2021/06/03 09:56:30;;;;;;;3.37;3.07;;;;;;;17.56;100.00;97502.03;5135157;27;20197;-84
2021/06/03 09:58:58;;;;;;;3.30;3.00;;;;;;;17.67;100.00;97497.34;5135039;27;20197;-83
2021/06/03 10:01:44;;;;;;;6.23;4.47;;;;;;;17.76;100.00;97499.78;5135194;27;20209;-84
2021/06/03 10:04:12;;;;;;;5.13;3.60;;;;;;;17.83;100.00;97491.94;5135145;27;20617;-83
2021/06/03 10:07:11;;;;;;;5.93;4.23;;;;;;;17.94;100.00;97469.44;5135094;27;20682;-83
2021/06/03 10:10:01;;;;;;;5.77;4.07;;;;;;;17.86;100.00;97446.38;5134850;27;20210;-84
2021/06/03 10:12:40;;;;;;;4.07;3.67;;;;;;;18.02;100.00;97432.16;5134776;27;20614;-83
2021/06/03 10:15:11;;;;;;;3.70;3.40;;;;;;;18.26;100.00;97447.13;5134835;27;20179;-84
2021/06/03 10:17:40;;;;;;;4.10;3.00;;;;;;;18.17;100.00;97418.91;5135148;27;20190;-84
2021/06/03 10:20:12;;;;;;;3.47;3.23;;;;;;;18.28;100.00;97431.78;5135004;27;20571;-83
2021/06/03 10:22:40;;;;;;;3.93;3.63;;;;;;;17.92;100.00;97432.41;5134538;27;20190;-84
2021/06/03 10:25:14;;;;;;;7.10;3.80;;;;;;;17.89;100.00;97434.59;5134619;27;20202;-84
2021/06/03 10:27:42;;;;;;;4.80;3.50;;;;;;;17.72;100.00;97424.00;5134764;27;20183;-84
2021/06/03 10:30:13;;;;;;;5.23;3.83;;;;;;;17.66;100.00;97435.34;5134496;27;20713;-84
2021/06/03 10:32:41;;;;;;;3.97;3.67;;;;;;;17.54;100.00;97436.75;5134463;27;20282;-84
2021/06/03 10:35:10;;;;;;;4.10;3.47;;;;;;;17.50;100.00;97440.75;5134442;27;20613;-83
2021/06/03 10:37:38;;;;;;;3.87;3.47;;;;;;;17.40;100.00;97446.28;5134621;27;20219;-84
2021/06/03 10:40:08;;;;;;;5.90;3.47;;;;;;;17.39;100.00;97446.44;5134406;27;20195;-84
2021/06/03 10:42:37;;;;;;;5.87;3.27;;;;;;;17.47;100.00;97446.41;5134762;27;20279;-83
2021/06/03 10:45:07;;;;;;;5.83;2.87;;;;;;;17.52;100.00;97460.00;5134244;27;20298;-84
2021/06/03 10:47:34;;;;;;;13.53;5.20;;;;;;;17.44;100.00;97452.91;5134042;27;20190;-83
2021/06/03 10:50:03;;;;;;;3.50;2.70;;;;;;;17.71;100.00;97442.81;5134091;27;20218;-83
2021/06/03 10:52:30;;;;;;;3.63;3.33;;;;;;;17.76;100.00;97429.84;5134011;27;20199;-83
2021/06/03 10:54:58;;;;;;;3.30;3.00;;;;;;;17.75;100.00;97413.03;5133950;27;20227;-84
2021/06/03 10:57:51;;;;;;;3.77;3.23;;;;;;;18.08;100.00;97439.44;5134326;27;20195;-84
2021/06/03 11:00:28;;;;;;;3.23;3.03;;;;;;;18.36;100.00;97422.91;5134016;27;20190;-83
2021/06/03 11:02:57;;;;;;;3.60;3.13;;;;;;;18.44;100.00;97409.56;5134117;27;20190;-83
2021/06/03 11:05:28;;;;;;;3.87;3.57;;;;;;;18.43;100.00;97405.25;5134149;27;20236;-84
2021/06/03 11:07:56;;;;;;;5.07;3.47;;;;;;;18.58;100.00;97403.41;5133758;27;20182;-83
2021/06/03 11:10:25;;;;;;;6.63;3.47;;;;;;;18.59;100.00;97420.22;5133729;27;20272;-84
2021/06/03 11:13:14;;;;;;;4.67;3.47;;;;;;;18.38;100.00;97426.22;5133601;27;20203;-83
2021/06/03 11:16:05;;;;;;;3.50;3.20;;;;;;;18.36;100.00;97423.75;5134322;27;20190;-84
2021/06/03 11:19:07;;;;;;;6.40;3.83;;;;;;;18.50;100.00;97424.81;5133541;27;20187;-84
2021/06/03 11:21:56;;;;;;;2.83;2.63;;;;;;;18.61;100.00;97402.25;5111346;27;20198;-83
2021/06/03 11:24:45;;;;;;;3.87;3.57;;;;;;;18.66;100.00;97392.69;5124924;27;20194;-83
2021/06/03 11:27:14;;;;;;;5.30;4.20;;;;;;;18.88;100.00;97379.53;5133764;27;20214;-84
2021/06/03 11:30:06;;;;;;;4.03;3.50;;;;;;;19.10;100.00;97391.91;5133273;27;20227;-84
2021/06/03 11:32:39;;;;;;;3.73;3.43;;;;;;;19.25;100.00;97376.72;5133571;27;20218;-83
2021/06/03 11:35:09;;;;;;;3.93;3.00;;;;;;;19.40;100.00;97355.38;5133066;27;20187;-84
2021/06/03 11:37:48;;;;;;;3.67;3.37;;;;;;;19.56;100.00;97350.81;5133391;27;20220;-84
2021/06/03 11:40:19;;;;;;;3.53;2.70;;;;;;;19.73;100.00;97314.09;5133484;27;20198;-84